EJA812 -KSAN
Flight info
| Callsign | EJA812 |
|---|---|
| Flight time | N/A |
| Altitude | VFR |
| Route | |
| Aircraft | C700/M-VGDW/C |
Departure
| Time | N/A |
|---|---|
| Airport | - |
Arrival
| Time | 2026-05-04 21:25 |
|---|---|
| Airport | San Diego International Airport (KSAN) |
| Time | Latitude | Longitude | Altitude | Speed | Heading |
|---|---|---|---|---|---|
| 2026-05-04 21:25 | 32.73351 | -117.17846 | 14 ft | 0 kts | 280° |
| 2026-05-04 21:26 | 32.73352 | -117.17852 | 13 ft | 0 kts | 280° |
| 2026-05-04 21:26 | 32.73358 | -117.17886 | 29 ft | 6 kts | 283° |
| 2026-05-04 21:27 | 32.73353 | -117.17942 | 38 ft | 10 kts | 246° |
| 2026-05-04 21:27 | 32.73270 | -117.17978 | 22 ft | 18 kts | 188° |
| 2026-05-04 21:27 | 32.73210 | -117.17890 | 20 ft | 20 kts | 106° |
| 2026-05-04 21:27 | 32.73158 | -117.17678 | 22 ft | 34 kts | 106° |
| 2026-05-04 21:28 | 32.73114 | -117.17565 | 21 ft | 7 kts | 148° |
| 2026-05-04 21:28 | 32.73103 | -117.17557 | 21 ft | 0 kts | 148° |
| 2026-05-04 21:28 | 32.73100 | -117.17555 | 25 ft | 2 kts | 148° |
| 2026-05-04 21:28 | 32.73037 | -117.17535 | 23 ft | 17 kts | 191° |
| 2026-05-04 21:29 | 32.73033 | -117.17634 | 22 ft | 32 kts | 287° |
| 2026-05-04 21:29 | 32.73187 | -117.18270 | 31 ft | 126 kts | 286° |
| 2026-05-04 21:29 | 32.73510 | -117.19522 | 515 ft | 187 kts | 287° |
| 2026-05-04 21:29 | 32.73991 | -117.21190 | 1285 ft | 244 kts | 293° |
| 2026-05-04 21:30 | 32.75120 | -117.22511 | 1725 ft | 231 kts | 347° |
| 2026-05-04 21:30 | 32.76326 | -117.21575 | 1721 ft | 239 kts | 85° |
| 2026-05-04 21:30 | 32.75890 | -117.19713 | 1783 ft | 234 kts | 112° |
| 2026-05-04 21:30 | 32.75307 | -117.17889 | 1656 ft | 234 kts | 110° |
| 2026-05-04 21:31 | 32.73989 | -117.15064 | 1712 ft | 146 kts | 161° |
| 2026-05-04 21:31 | 32.73136 | -117.15222 | 1340 ft | 125 kts | 222° |
| 2026-05-04 21:31 | 32.72580 | -117.15938 | 667 ft | 107 kts | 257° |
| 2026-05-04 21:32 | 32.72807 | -117.16795 | 265 ft | 112 kts | 291° |
| 2026-05-04 21:32 | 32.73047 | -117.17658 | 55 ft | 108 kts | 287° |
| 2026-05-04 21:32 | 32.73229 | -117.18441 | 22 ft | 81 kts | 285° |
| 2026-05-04 21:32 | 32.73434 | -117.19281 | 146 ft | 139 kts | 286° |
| 2026-05-04 21:33 | 32.73740 | -117.20590 | 925 ft | 186 kts | 285° |
| 2026-05-04 21:33 | 32.74348 | -117.22082 | 1782 ft | 238 kts | 313° |
| 2026-05-04 21:33 | 32.75898 | -117.22132 | 1749 ft | 259 kts | 57° |
| 2026-05-04 21:33 | 32.75885 | -117.20073 | 1695 ft | 254 kts | 107° |
| 2026-05-04 21:34 | 32.75403 | -117.18068 | 1634 ft | 251 kts | 105° |
| 2026-05-04 21:34 | 32.74924 | -117.16105 | 1756 ft | 242 kts | 109° |
| 2026-05-04 21:34 | 32.73988 | -117.14844 | 1640 ft | 165 kts | 174° |
| 2026-05-04 21:34 | 32.73051 | -117.15195 | 1114 ft | 140 kts | 214° |
| 2026-05-04 21:35 | 32.72633 | -117.16022 | 642 ft | 124 kts | 275° |
| 2026-05-04 21:35 | 32.72872 | -117.16993 | 235 ft | 117 kts | 286° |
| 2026-05-04 21:35 | 32.73087 | -117.17859 | 63 ft | 101 kts | 287° |
| 2026-05-04 21:35 | 32.73263 | -117.18556 | 26 ft | 72 kts | 284° |
| 2026-05-04 21:36 | 32.73361 | -117.18829 | 17 ft | 13 kts | 11° |
| 2026-05-04 21:36 | 32.73403 | -117.18808 | 17 ft | 0 kts | 29° |
| 2026-05-04 21:36 | 32.73405 | -117.18807 | 16 ft | 0 kts | 30° |
| 2026-05-04 21:36 | 32.73409 | -117.18804 | 16 ft | 5 kts | 37° |
| 2026-05-04 21:37 | 32.73408 | -117.18707 | 20 ft | 15 kts | 107° |
| 2026-05-04 21:37 | 32.73377 | -117.18579 | 22 ft | 17 kts | 106° |
| 2026-05-04 21:37 | 32.73340 | -117.18427 | 24 ft | 25 kts | 106° |
| 2026-05-04 21:37 | 32.73286 | -117.18202 | 24 ft | 30 kts | 106° |
| 2026-05-04 21:38 | 32.73243 | -117.18029 | 22 ft | 10 kts | 105° |
| 2026-05-04 21:38 | 32.73268 | -117.17985 | 25 ft | 7 kts | 31° |
| 2026-05-04 21:38 | 32.73316 | -117.17964 | 26 ft | 8 kts | 15° |
| 2026-05-04 21:38 | 32.73370 | -117.17965 | 26 ft | 9 kts | 314° |
| 2026-05-04 21:39 | 32.73384 | -117.17981 | 26 ft | 1 kts | 314° |
| 2026-05-04 21:39 | 32.73384 | -117.17982 | 26 ft | 0 kts | 314° |